sensor_id;sensor_type;location;lat;lon;timestamp;P1;durP1;ratioP1;P2;durP2;ratioP2
77563;SDS011;66703;48.076;9.220;2023-04-23T00:00:37;9.20;;;8.48;;
77563;SDS011;66703;48.076;9.220;2023-04-23T00:03:04;7.88;;;7.28;;
77563;SDS011;66703;48.076;9.220;2023-04-23T00:05:34;8.25;;;7.47;;
77563;SDS011;66703;48.076;9.220;2023-04-23T00:08:01;8.40;;;7.75;;
77563;SDS011;66703;48.076;9.220;2023-04-23T00:10:27;8.63;;;7.88;;
77563;SDS011;66703;48.076;9.220;2023-04-23T00:12:53;10.00;;;9.30;;
77563;SDS011;66703;48.076;9.220;2023-04-23T00:15:19;12.85;;;12.05;;
77563;SDS011;66703;48.076;9.220;2023-04-23T00:17:46;8.00;;;7.40;;
77563;SDS011;66703;48.076;9.220;2023-04-23T00:20:12;7.88;;;7.20;;
77563;SDS011;66703;48.076;9.220;2023-04-23T00:22:38;8.35;;;7.65;;
77563;SDS011;66703;48.076;9.220;2023-04-23T00:25:03;7.38;;;6.85;;
77563;SDS011;66703;48.076;9.220;2023-04-23T00:27:29;8.73;;;7.93;;
77563;SDS011;66703;48.076;9.220;2023-04-23T00:29:55;7.25;;;6.75;;
77563;SDS011;66703;48.076;9.220;2023-04-23T00:32:23;8.30;;;7.60;;
77563;SDS011;66703;48.076;9.220;2023-04-23T00:34:48;7.50;;;6.72;;
77563;SDS011;66703;48.076;9.220;2023-04-23T00:37:14;8.45;;;7.78;;
77563;SDS011;66703;48.076;9.220;2023-04-23T00:39:40;11.00;;;10.07;;
77563;SDS011;66703;48.076;9.220;2023-04-23T00:42:05;7.97;;;6.32;;
77563;SDS011;66703;48.076;9.220;2023-04-23T00:44:36;7.38;;;6.88;;
77563;SDS011;66703;48.076;9.220;2023-04-23T00:47:08;7.43;;;6.68;;
77563;SDS011;66703;48.076;9.220;2023-04-23T00:49:34;6.55;;;6.03;;
77563;SDS011;66703;48.076;9.220;2023-04-23T00:52:00;9.82;;;9.13;;
77563;SDS011;66703;48.076;9.220;2023-04-23T00:54:25;7.47;;;6.93;;
77563;SDS011;66703;48.076;9.220;2023-04-23T00:56:51;7.00;;;6.50;;
77563;SDS011;66703;48.076;9.220;2023-04-23T00:59:17;7.70;;;7.00;;
77563;SDS011;66703;48.076;9.220;2023-04-23T01:01:43;8.55;;;7.95;;
77563;SDS011;66703;48.076;9.220;2023-04-23T01:04:10;8.68;;;7.88;;
77563;SDS011;66703;48.076;9.220;2023-04-23T01:06:37;8.10;;;7.40;;
77563;SDS011;66703;48.076;9.220;2023-04-23T01:09:02;7.40;;;6.90;;
77563;SDS011;66703;48.076;9.220;2023-04-23T01:11:28;8.68;;;8.07;;
77563;SDS011;66703;48.076;9.220;2023-04-23T01:13:53;8.05;;;7.45;;
77563;SDS011;66703;48.076;9.220;2023-04-23T01:16:19;8.75;;;8.05;;
77563;SDS011;66703;48.076;9.220;2023-04-23T01:18:44;10.38;;;9.68;;
77563;SDS011;66703;48.076;9.220;2023-04-23T01:21:10;7.13;;;6.63;;
77563;SDS011;66703;48.076;9.220;2023-04-23T01:23:36;8.57;;;7.82;;
77563;SDS011;66703;48.076;9.220;2023-04-23T01:26:01;8.52;;;7.93;;
77563;SDS011;66703;48.076;9.220;2023-04-23T01:28:27;7.57;;;6.97;;
77563;SDS011;66703;48.076;9.220;2023-04-23T01:30:54;9.50;;;8.80;;
77563;SDS011;66703;48.076;9.220;2023-04-23T01:33:20;8.55;;;7.85;;
77563;SDS011;66703;48.076;9.220;2023-04-23T01:35:45;9.43;;;8.80;;
77563;SDS011;66703;48.076;9.220;2023-04-23T01:38:13;7.47;;;6.78;;
77563;SDS011;66703;48.076;9.220;2023-04-23T01:40:39;8.82;;;8.07;;
77563;SDS011;66703;48.076;9.220;2023-04-23T01:43:07;7.45;;;6.80;;
77563;SDS011;66703;48.076;9.220;2023-04-23T01:45:33;8.40;;;7.88;;
77563;SDS011;66703;48.076;9.220;2023-04-23T01:47:59;8.27;;;7.57;;
77563;SDS011;66703;48.076;9.220;2023-04-23T01:50:25;7.68;;;7.13;;
77563;SDS011;66703;48.076;9.220;2023-04-23T01:52:51;13.80;;;12.88;;
77563;SDS011;66703;48.076;9.220;2023-04-23T01:55:17;8.85;;;8.13;;
77563;SDS011;66703;48.076;9.220;2023-04-23T01:57:43;9.48;;;8.82;;
77563;SDS011;66703;48.076;9.220;2023-04-23T02:00:10;9.10;;;8.45;;
77563;SDS011;66703;48.076;9.220;2023-04-23T02:02:36;7.32;;;6.72;;
77563;SDS011;66703;48.076;9.220;2023-04-23T02:05:02;8.45;;;7.75;;
77563;SDS011;66703;48.076;9.220;2023-04-23T02:07:32;9.45;;;8.65;;
77563;SDS011;66703;48.076;9.220;2023-04-23T02:09:58;9.90;;;9.13;;
77563;SDS011;66703;48.076;9.220;2023-04-23T02:12:24;9.60;;;9.00;;
77563;SDS011;66703;48.076;9.220;2023-04-23T02:14:50;14.25;;;13.45;;
77563;SDS011;66703;48.076;9.220;2023-04-23T02:17:16;12.43;;;11.73;;
77563;SDS011;66703;48.076;9.220;2023-04-23T02:19:43;8.63;;;7.93;;
77563;SDS011;66703;48.076;9.220;2023-04-23T02:22:09;9.57;;;8.82;;
77563;SDS011;66703;48.076;9.220;2023-04-23T02:24:34;9.52;;;8.82;;
77563;SDS011;66703;48.076;9.220;2023-04-23T02:27:00;9.55;;;8.75;;
77563;SDS011;66703;48.076;9.220;2023-04-23T02:29:26;9.23;;;8.63;;
77563;SDS011;66703;48.076;9.220;2023-04-23T02:31:51;9.80;;;8.98;;
77563;SDS011;66703;48.076;9.220;2023-04-23T02:34:16;10.57;;;9.88;;
77563;SDS011;66703;48.076;9.220;2023-04-23T02:36:42;10.80;;;9.85;;
77563;SDS011;66703;48.076;9.220;2023-04-23T02:39:07;8.25;;;7.53;;
77563;SDS011;66703;48.076;9.220;2023-04-23T02:41:35;10.13;;;8.45;;
77563;SDS011;66703;48.076;9.220;2023-04-23T02:44:01;9.35;;;8.55;;
77563;SDS011;66703;48.076;9.220;2023-04-23T02:46:26;8.68;;;8.05;;
77563;SDS011;66703;48.076;9.220;2023-04-23T02:48:52;7.43;;;6.78;;
77563;SDS011;66703;48.076;9.220;2023-04-23T02:51:17;6.80;;;6.25;;
77563;SDS011;66703;48.076;9.220;2023-04-23T02:53:42;7.72;;;7.03;;
77563;SDS011;66703;48.076;9.220;2023-04-23T02:56:08;8.93;;;8.23;;
77563;SDS011;66703;48.076;9.220;2023-04-23T02:58:33;8.60;;;8.00;;
77563;SDS011;66703;48.076;9.220;2023-04-23T03:00:59;7.72;;;6.90;;
77563;SDS011;66703;48.076;9.220;2023-04-23T03:03:25;8.35;;;7.50;;
77563;SDS011;66703;48.076;9.220;2023-04-23T03:05:55;7.88;;;7.22;;
77563;SDS011;66703;48.076;9.220;2023-04-23T03:08:21;7.25;;;6.65;;
77563;SDS011;66703;48.076;9.220;2023-04-23T03:10:46;8.20;;;7.40;;
77563;SDS011;66703;48.076;9.220;2023-04-23T03:13:11;6.97;;;6.38;;
77563;SDS011;66703;48.076;9.220;2023-04-23T03:15:37;7.38;;;6.88;;
77563;SDS011;66703;48.076;9.220;2023-04-23T03:18:02;7.80;;;7.22;;
77563;SDS011;66703;48.076;9.220;2023-04-23T03:20:30;8.13;;;6.40;;
77563;SDS011;66703;48.076;9.220;2023-04-23T03:22:55;6.80;;;6.20;;
77563;SDS011;66703;48.076;9.220;2023-04-23T03:25:21;7.47;;;6.80;;
77563;SDS011;66703;48.076;9.220;2023-04-23T03:27:48;7.65;;;7.05;;
77563;SDS011;66703;48.076;9.220;2023-04-23T03:30:13;6.35;;;5.75;;
77563;SDS011;66703;48.076;9.220;2023-04-23T03:32:39;8.20;;;7.45;;
77563;SDS011;66703;48.076;9.220;2023-04-23T03:35:04;7.82;;;7.20;;
77563;SDS011;66703;48.076;9.220;2023-04-23T03:37:30;9.02;;;8.27;;
77563;SDS011;66703;48.076;9.220;2023-04-23T03:39:55;7.57;;;7.07;;
77563;SDS011;66703;48.076;9.220;2023-04-23T03:42:20;8.45;;;7.93;;
77563;SDS011;66703;48.076;9.220;2023-04-23T03:44:46;10.20;;;9.57;;
77563;SDS011;66703;48.076;9.220;2023-04-23T03:47:11;10.80;;;10.07;;
77563;SDS011;66703;48.076;9.220;2023-04-23T03:49:36;8.75;;;8.05;;
77563;SDS011;66703;48.076;9.220;2023-04-23T03:52:02;8.07;;;7.28;;
77563;SDS011;66703;48.076;9.220;2023-04-23T03:54:28;9.23;;;8.38;;
77563;SDS011;66703;48.076;9.220;2023-04-23T03:56:53;8.43;;;7.72;;
77563;SDS011;66703;48.076;9.220;2023-04-23T03:59:19;11.38;;;10.48;;
77563;SDS011;66703;48.076;9.220;2023-04-23T04:01:45;9.18;;;8.40;;
77563;SDS011;66703;48.076;9.220;2023-04-23T04:04:12;9.27;;;8.48;;
77563;SDS011;66703;48.076;9.220;2023-04-23T04:06:39;10.05;;;9.05;;
77563;SDS011;66703;48.076;9.220;2023-04-23T04:09:05;9.45;;;8.55;;
77563;SDS011;66703;48.076;9.220;2023-04-23T04:11:32;10.52;;;9.43;;
77563;SDS011;66703;48.076;9.220;2023-04-23T04:13:57;12.00;;;11.10;;
77563;SDS011;66703;48.076;9.220;2023-04-23T04:16:22;11.80;;;10.60;;
77563;SDS011;66703;48.076;9.220;2023-04-23T04:18:48;10.30;;;9.40;;
77563;SDS011;66703;48.076;9.220;2023-04-23T04:21:13;13.90;;;12.70;;
77563;SDS011;66703;48.076;9.220;2023-04-23T04:23:40;12.27;;;11.23;;
77563;SDS011;66703;48.076;9.220;2023-04-23T04:26:05;12.13;;;11.00;;
77563;SDS011;66703;48.076;9.220;2023-04-23T04:28:32;11.18;;;10.20;;
77563;SDS011;66703;48.076;9.220;2023-04-23T04:31:00;11.02;;;10.00;;
77563;SDS011;66703;48.076;9.220;2023-04-23T04:33:26;12.20;;;11.00;;
77563;SDS011;66703;48.076;9.220;2023-04-23T04:35:53;11.63;;;9.95;;
77563;SDS011;66703;48.076;9.220;2023-04-23T04:38:18;16.02;;;14.70;;
77563;SDS011;66703;48.076;9.220;2023-04-23T04:40:45;11.10;;;10.07;;
77563;SDS011;66703;48.076;9.220;2023-04-23T04:43:12;11.73;;;10.52;;
77563;SDS011;66703;48.076;9.220;2023-04-23T04:45:40;10.30;;;9.35;;
77563;SDS011;66703;48.076;9.220;2023-04-23T04:48:06;12.38;;;11.18;;
77563;SDS011;66703;48.076;9.220;2023-04-23T04:50:31;10.98;;;9.90;;
77563;SDS011;66703;48.076;9.220;2023-04-23T04:52:57;11.95;;;10.75;;
77563;SDS011;66703;48.076;9.220;2023-04-23T04:55:22;11.77;;;10.73;;
77563;SDS011;66703;48.076;9.220;2023-04-23T04:57:48;13.85;;;12.65;;
77563;SDS011;66703;48.076;9.220;2023-04-23T05:00:26;13.27;;;11.98;;
77563;SDS011;66703;48.076;9.220;2023-04-23T05:02:53;12.45;;;11.25;;
77563;SDS011;66703;48.076;9.220;2023-04-23T05:05:20;11.63;;;10.48;;
77563;SDS011;66703;48.076;9.220;2023-04-23T05:07:46;13.00;;;10.50;;
77563;SDS011;66703;48.076;9.220;2023-04-23T05:10:12;12.13;;;11.00;;
77563;SDS011;66703;48.076;9.220;2023-04-23T05:12:38;12.07;;;11.07;;
77563;SDS011;66703;48.076;9.220;2023-04-23T05:15:06;12.45;;;10.80;;
77563;SDS011;66703;48.076;9.220;2023-04-23T05:17:37;11.98;;;10.98;;
77563;SDS011;66703;48.076;9.220;2023-04-23T05:20:08;10.90;;;9.80;;
77563;SDS011;66703;48.076;9.220;2023-04-23T05:22:41;11.45;;;10.45;;
77563;SDS011;66703;48.076;9.220;2023-04-23T05:25:07;12.05;;;10.93;;
77563;SDS011;66703;48.076;9.220;2023-04-23T05:27:34;12.15;;;11.10;;
77563;SDS011;66703;48.076;9.220;2023-04-23T05:30:01;12.45;;;11.48;;
77563;SDS011;66703;48.076;9.220;2023-04-23T05:32:27;14.60;;;13.40;;
77563;SDS011;66703;48.076;9.220;2023-04-23T05:34:52;12.32;;;11.32;;
77563;SDS011;66703;48.076;9.220;2023-04-23T05:37:18;10.85;;;9.85;;
77563;SDS011;66703;48.076;9.220;2023-04-23T05:39:43;11.13;;;10.13;;
77563;SDS011;66703;48.076;9.220;2023-04-23T05:42:08;12.82;;;11.65;;
77563;SDS011;66703;48.076;9.220;2023-04-23T05:44:35;12.77;;;11.68;;
77563;SDS011;66703;48.076;9.220;2023-04-23T05:47:00;13.13;;;11.93;;
77563;SDS011;66703;48.076;9.220;2023-04-23T05:49:25;11.98;;;10.88;;
77563;SDS011;66703;48.076;9.220;2023-04-23T05:51:51;12.00;;;11.00;;
77563;SDS011;66703;48.076;9.220;2023-04-23T05:54:17;11.80;;;10.90;;
77563;SDS011;66703;48.076;9.220;2023-04-23T05:56:43;10.98;;;9.95;;
77563;SDS011;66703;48.076;9.220;2023-04-23T05:59:08;12.35;;;11.07;;
77563;SDS011;66703;48.076;9.220;2023-04-23T06:01:34;12.68;;;11.63;;
77563;SDS011;66703;48.076;9.220;2023-04-23T06:03:59;11.65;;;10.55;;
77563;SDS011;66703;48.076;9.220;2023-04-23T06:06:25;11.95;;;10.95;;
77563;SDS011;66703;48.076;9.220;2023-04-23T06:08:51;13.43;;;12.38;;
77563;SDS011;66703;48.076;9.220;2023-04-23T06:11:17;12.57;;;11.55;;
77563;SDS011;66703;48.076;9.220;2023-04-23T06:13:42;11.68;;;10.60;;
77563;SDS011;66703;48.076;9.220;2023-04-23T06:16:09;11.90;;;10.80;;
77563;SDS011;66703;48.076;9.220;2023-04-23T06:18:34;11.85;;;10.73;;
77563;SDS011;66703;48.076;9.220;2023-04-23T06:21:01;11.52;;;10.55;;
77563;SDS011;66703;48.076;9.220;2023-04-23T06:23:28;12.57;;;11.48;;
77563;SDS011;66703;48.076;9.220;2023-04-23T06:25:57;10.40;;;9.43;;
77563;SDS011;66703;48.076;9.220;2023-04-23T06:28:25;10.25;;;9.35;;
77563;SDS011;66703;48.076;9.220;2023-04-23T06:30:51;10.27;;;9.27;;
77563;SDS011;66703;48.076;9.220;2023-04-23T06:33:16;11.63;;;10.60;;
77563;SDS011;66703;48.076;9.220;2023-04-23T06:35:42;10.98;;;10.00;;
77563;SDS011;66703;48.076;9.220;2023-04-23T06:38:07;8.65;;;7.88;;
77563;SDS011;66703;48.076;9.220;2023-04-23T06:40:36;8.82;;;7.93;;
77563;SDS011;66703;48.076;9.220;2023-04-23T06:43:26;8.95;;;8.15;;
77563;SDS011;66703;48.076;9.220;2023-04-23T06:45:52;10.65;;;9.85;;
77563;SDS011;66703;48.076;9.220;2023-04-23T06:48:17;8.55;;;7.90;;
77563;SDS011;66703;48.076;9.220;2023-04-23T06:50:43;9.15;;;8.35;;
77563;SDS011;66703;48.076;9.220;2023-04-23T06:53:09;8.98;;;8.32;;
77563;SDS011;66703;48.076;9.220;2023-04-23T06:55:34;7.88;;;7.32;;
77563;SDS011;66703;48.076;9.220;2023-04-23T06:58:00;8.25;;;7.63;;
77563;SDS011;66703;48.076;9.220;2023-04-23T07:00:25;7.72;;;7.22;;
77563;SDS011;66703;48.076;9.220;2023-04-23T07:02:54;7.13;;;6.53;;
77563;SDS011;66703;48.076;9.220;2023-04-23T07:05:19;7.05;;;6.55;;
77563;SDS011;66703;48.076;9.220;2023-04-23T07:07:45;9.55;;;8.93;;
77563;SDS011;66703;48.076;9.220;2023-04-23T07:10:34;6.13;;;5.72;;
77563;SDS011;66703;48.076;9.220;2023-04-23T07:12:59;5.85;;;5.45;;
77563;SDS011;66703;48.076;9.220;2023-04-23T07:15:25;5.68;;;5.28;;
77563;SDS011;66703;48.076;9.220;2023-04-23T07:17:51;5.95;;;5.50;;
77563;SDS011;66703;48.076;9.220;2023-04-23T07:20:16;6.22;;;5.63;;
77563;SDS011;66703;48.076;9.220;2023-04-23T07:22:41;4.90;;;4.53;;
77563;SDS011;66703;48.076;9.220;2023-04-23T07:25:07;4.13;;;3.83;;
77563;SDS011;66703;48.076;9.220;2023-04-23T07:27:37;6.10;;;4.53;;
77563;SDS011;66703;48.076;9.220;2023-04-23T07:30:05;4.93;;;4.53;;
77563;SDS011;66703;48.076;9.220;2023-04-23T07:32:31;4.53;;;4.18;;
77563;SDS011;66703;48.076;9.220;2023-04-23T07:34:59;5.00;;;4.70;;
77563;SDS011;66703;48.076;9.220;2023-04-23T07:37:28;5.13;;;4.72;;
77563;SDS011;66703;48.076;9.220;2023-04-23T07:39:54;3.90;;;3.60;;
77563;SDS011;66703;48.076;9.220;2023-04-23T07:42:20;4.18;;;3.85;;
77563;SDS011;66703;48.076;9.220;2023-04-23T07:44:48;4.38;;;3.53;;
77563;SDS011;66703;48.076;9.220;2023-04-23T07:47:14;5.43;;;5.13;;
77563;SDS011;66703;48.076;9.220;2023-04-23T07:49:40;5.93;;;5.63;;
77563;SDS011;66703;48.076;9.220;2023-04-23T07:52:05;4.22;;;3.80;;
77563;SDS011;66703;48.076;9.220;2023-04-23T07:54:32;4.85;;;4.55;;
77563;SDS011;66703;48.076;9.220;2023-04-23T07:56:57;4.13;;;3.88;;
77563;SDS011;66703;48.076;9.220;2023-04-23T07:59:23;4.25;;;3.95;;
77563;SDS011;66703;48.076;9.220;2023-04-23T08:01:48;5.28;;;4.97;;
77563;SDS011;66703;48.076;9.220;2023-04-23T08:04:13;4.13;;;3.92;;
77563;SDS011;66703;48.076;9.220;2023-04-23T08:06:39;4.82;;;4.53;;
77563;SDS011;66703;48.076;9.220;2023-04-23T08:09:05;3.65;;;3.45;;
77563;SDS011;66703;48.076;9.220;2023-04-23T08:11:31;6.75;;;6.35;;
77563;SDS011;66703;48.076;9.220;2023-04-23T08:13:57;6.93;;;6.63;;
77563;SDS011;66703;48.076;9.220;2023-04-23T08:16:23;3.60;;;3.40;;
77563;SDS011;66703;48.076;9.220;2023-04-23T08:18:51;5.25;;;4.88;;
77563;SDS011;66703;48.076;9.220;2023-04-23T08:21:16;3.10;;;2.90;;
77563;SDS011;66703;48.076;9.220;2023-04-23T08:23:42;4.20;;;3.90;;
77563;SDS011;66703;48.076;9.220;2023-04-23T08:26:10;4.47;;;4.18;;
77563;SDS011;66703;48.076;9.220;2023-04-23T08:28:35;4.07;;;3.78;;
77563;SDS011;66703;48.076;9.220;2023-04-23T08:31:01;4.70;;;4.50;;
77563;SDS011;66703;48.076;9.220;2023-04-23T08:33:26;5.20;;;4.90;;
77563;SDS011;66703;48.076;9.220;2023-04-23T08:35:55;5.60;;;5.20;;
77563;SDS011;66703;48.076;9.220;2023-04-23T08:38:20;3.97;;;3.67;;
77563;SDS011;66703;48.076;9.220;2023-04-23T08:40:46;5.40;;;5.10;;
77563;SDS011;66703;48.076;9.220;2023-04-23T08:43:21;6.13;;;5.82;;
77563;SDS011;66703;48.076;9.220;2023-04-23T08:45:55;3.17;;;2.97;;
77563;SDS011;66703;48.076;9.220;2023-04-23T08:48:28;4.00;;;3.70;;
77563;SDS011;66703;48.076;9.220;2023-04-23T08:50:53;4.15;;;3.85;;
77563;SDS011;66703;48.076;9.220;2023-04-23T08:53:21;3.60;;;3.40;;
77563;SDS011;66703;48.076;9.220;2023-04-23T08:55:50;4.18;;;3.88;;
77563;SDS011;66703;48.076;9.220;2023-04-23T08:58:15;3.78;;;3.55;;
77563;SDS011;66703;48.076;9.220;2023-04-23T09:00:41;3.28;;;2.97;;
77563;SDS011;66703;48.076;9.220;2023-04-23T09:03:07;4.63;;;4.43;;
77563;SDS011;66703;48.076;9.220;2023-04-23T09:05:32;3.15;;;2.95;;
77563;SDS011;66703;48.076;9.220;2023-04-23T09:07:58;3.92;;;3.72;;
77563;SDS011;66703;48.076;9.220;2023-04-23T09:10:24;3.25;;;3.05;;
77563;SDS011;66703;48.076;9.220;2023-04-23T09:12:50;3.53;;;3.17;;
77563;SDS011;66703;48.076;9.220;2023-04-23T09:15:16;3.60;;;3.40;;
77563;SDS011;66703;48.076;9.220;2023-04-23T09:17:43;3.88;;;3.67;;
77563;SDS011;66703;48.076;9.220;2023-04-23T09:20:10;3.70;;;3.50;;
77563;SDS011;66703;48.076;9.220;2023-04-23T09:22:37;3.88;;;3.00;;
77563;SDS011;66703;48.076;9.220;2023-04-23T09:25:06;4.50;;;4.28;;
77563;SDS011;66703;48.076;9.220;2023-04-23T09:27:35;3.63;;;3.42;;
77563;SDS011;66703;48.076;9.220;2023-04-23T09:30:02;3.45;;;3.25;;
77563;SDS011;66703;48.076;9.220;2023-04-23T09:32:31;2.97;;;2.78;;
77563;SDS011;66703;48.076;9.220;2023-04-23T09:35:06;3.33;;;3.13;;
77563;SDS011;66703;48.076;9.220;2023-04-23T09:37:33;3.40;;;3.20;;
77563;SDS011;66703;48.076;9.220;2023-04-23T09:40:00;2.72;;;2.53;;
77563;SDS011;66703;48.076;9.220;2023-04-23T09:42:26;3.53;;;3.33;;
77563;SDS011;66703;48.076;9.220;2023-04-23T09:44:56;3.30;;;3.03;;
77563;SDS011;66703;48.076;9.220;2023-04-23T09:47:23;3.83;;;3.60;;
77563;SDS011;66703;48.076;9.220;2023-04-23T09:49:48;3.78;;;3.55;;
77563;SDS011;66703;48.076;9.220;2023-04-23T09:52:14;3.65;;;3.45;;
77563;SDS011;66703;48.076;9.220;2023-04-23T09:54:41;3.72;;;3.53;;
77563;SDS011;66703;48.076;9.220;2023-04-23T09:57:06;3.10;;;2.90;;
77563;SDS011;66703;48.076;9.220;2023-04-23T09:59:35;3.45;;;3.25;;
77563;SDS011;66703;48.076;9.220;2023-04-23T10:02:01;3.78;;;3.47;;
77563;SDS011;66703;48.076;9.220;2023-04-23T10:04:28;3.45;;;3.15;;
77563;SDS011;66703;48.076;9.220;2023-04-23T10:06:54;3.40;;;3.10;;
77563;SDS011;66703;48.076;9.220;2023-04-23T10:09:20;3.42;;;3.13;;
77563;SDS011;66703;48.076;9.220;2023-04-23T10:11:48;3.33;;;3.03;;
77563;SDS011;66703;48.076;9.220;2023-04-23T10:14:19;3.53;;;3.22;;
77563;SDS011;66703;48.076;9.220;2023-04-23T10:16:46;4.78;;;4.47;;
77563;SDS011;66703;48.076;9.220;2023-04-23T10:19:15;3.25;;;3.05;;
77563;SDS011;66703;48.076;9.220;2023-04-23T10:21:42;3.47;;;3.28;;
77563;SDS011;66703;48.076;9.220;2023-04-23T10:24:09;3.67;;;3.20;;
77563;SDS011;66703;48.076;9.220;2023-04-23T10:26:37;3.70;;;3.40;;
77563;SDS011;66703;48.076;9.220;2023-04-23T10:29:04;3.08;;;2.80;;
77563;SDS011;66703;48.076;9.220;2023-04-23T10:31:32;3.58;;;3.05;;
77563;SDS011;66703;48.076;9.220;2023-04-23T10:33:58;2.53;;;2.33;;
77563;SDS011;66703;48.076;9.220;2023-04-23T10:36:25;2.70;;;2.50;;
77563;SDS011;66703;48.076;9.220;2023-04-23T10:38:51;3.10;;;2.90;;
77563;SDS011;66703;48.076;9.220;2023-04-23T10:41:20;2.33;;;2.13;;
77563;SDS011;66703;48.076;9.220;2023-04-23T10:43:47;3.28;;;2.67;;
77563;SDS011;66703;48.076;9.220;2023-04-23T10:46:29;3.20;;;2.40;;
77563;SDS011;66703;48.076;9.220;2023-04-23T10:51:38;2.95;;;2.50;;
77563;SDS011;66703;48.076;9.220;2023-04-23T10:54:04;2.83;;;2.50;;
77563;SDS011;66703;48.076;9.220;2023-04-23T10:56:30;2.50;;;2.30;;
77563;SDS011;66703;48.076;9.220;2023-04-23T10:58:56;2.53;;;2.33;;
77563;SDS011;66703;48.076;9.220;2023-04-23T11:01:24;2.92;;;2.03;;
77563;SDS011;66703;48.076;9.220;2023-04-23T11:03:55;2.17;;;1.98;;
77563;SDS011;66703;48.076;9.220;2023-04-23T11:12:12;2.85;;;2.42;;
77563;SDS011;66703;48.076;9.220;2023-04-23T11:14:51;2.72;;;2.45;;
77563;SDS011;66703;48.076;9.220;2023-04-23T11:20:17;2.30;;;2.10;;
77563;SDS011;66703;48.076;9.220;2023-04-23T11:22:45;2.65;;;2.38;;
77563;SDS011;66703;48.076;9.220;2023-04-23T11:25:19;3.55;;;2.30;;
77563;SDS011;66703;48.076;9.220;2023-04-23T11:27:45;3.22;;;2.72;;
77563;SDS011;66703;48.076;9.220;2023-04-23T11:30:21;2.90;;;2.63;;
77563;SDS011;66703;48.076;9.220;2023-04-23T11:32:49;4.15;;;3.08;;
77563;SDS011;66703;48.076;9.220;2023-04-23T11:35:19;3.63;;;2.50;;
77563;SDS011;66703;48.076;9.220;2023-04-23T11:37:46;2.90;;;2.70;;
77563;SDS011;66703;48.076;9.220;2023-04-23T11:40:13;3.20;;;2.97;;
77563;SDS011;66703;48.076;9.220;2023-04-23T11:42:47;3.38;;;3.17;;
77563;SDS011;66703;48.076;9.220;2023-04-23T11:45:15;2.97;;;2.63;;
77563;SDS011;66703;48.076;9.220;2023-04-23T11:47:44;3.65;;;2.40;;
77563;SDS011;66703;48.076;9.220;2023-04-23T11:50:15;3.28;;;2.90;;
77563;SDS011;66703;48.076;9.220;2023-04-23T11:52:42;4.28;;;2.28;;
77563;SDS011;66703;48.076;9.220;2023-04-23T11:55:12;2.90;;;2.40;;
77563;SDS011;66703;48.076;9.220;2023-04-23T11:57:55;2.85;;;2.45;;
77563;SDS011;66703;48.076;9.220;2023-04-23T12:00:22;2.65;;;2.38;;
77563;SDS011;66703;48.076;9.220;2023-04-23T12:02:52;5.95;;;2.50;;
77563;SDS011;66703;48.076;9.220;2023-04-23T12:08:17;4.28;;;2.40;;
77563;SDS011;66703;48.076;9.220;2023-04-23T12:10:51;2.75;;;2.42;;
77563;SDS011;66703;48.076;9.220;2023-04-23T12:13:21;3.85;;;2.30;;
77563;SDS011;66703;48.076;9.220;2023-04-23T12:15:49;4.00;;;2.90;;
77563;SDS011;66703;48.076;9.220;2023-04-23T12:18:16;2.65;;;2.45;;
77563;SDS011;66703;48.076;9.220;2023-04-23T12:20:43;2.42;;;2.22;;
77563;SDS011;66703;48.076;9.220;2023-04-23T12:23:10;3.88;;;2.45;;
77563;SDS011;66703;48.076;9.220;2023-04-23T12:25:38;2.88;;;2.35;;
77563;SDS011;66703;48.076;9.220;2023-04-23T12:28:05;2.47;;;2.15;;
77563;SDS011;66703;48.076;9.220;2023-04-23T12:30:31;3.55;;;2.35;;
77563;SDS011;66703;48.076;9.220;2023-04-23T12:32:58;2.85;;;2.50;;
77563;SDS011;66703;48.076;9.220;2023-04-23T12:35:58;3.92;;;2.45;;
77563;SDS011;66703;48.076;9.220;2023-04-23T12:38:22;3.70;;;2.35;;
77563;SDS011;66703;48.076;9.220;2023-04-23T12:40:51;2.83;;;2.47;;
77563;SDS011;66703;48.076;9.220;2023-04-23T12:43:18;2.63;;;2.42;;
77563;SDS011;66703;48.076;9.220;2023-04-23T12:45:43;2.80;;;2.50;;
77563;SDS011;66703;48.076;9.220;2023-04-23T12:48:09;3.03;;;2.53;;
77563;SDS011;66703;48.076;9.220;2023-04-23T12:50:35;2.97;;;2.65;;
77563;SDS011;66703;48.076;9.220;2023-04-23T12:53:01;4.28;;;2.53;;
77563;SDS011;66703;48.076;9.220;2023-04-23T12:55:27;5.15;;;2.42;;
77563;SDS011;66703;48.076;9.220;2023-04-23T12:57:52;3.00;;;2.53;;
77563;SDS011;66703;48.076;9.220;2023-04-23T13:00:21;3.15;;;2.58;;
77563;SDS011;66703;48.076;9.220;2023-04-23T13:02:47;3.22;;;2.35;;
77563;SDS011;66703;48.076;9.220;2023-04-23T13:05:12;5.47;;;2.55;;
77563;SDS011;66703;48.076;9.220;2023-04-23T13:07:44;2.97;;;2.67;;
77563;SDS011;66703;48.076;9.220;2023-04-23T13:10:10;3.45;;;2.40;;
77563;SDS011;66703;48.076;9.220;2023-04-23T13:12:38;9.25;;;2.72;;
77563;SDS011;66703;48.076;9.220;2023-04-23T13:15:07;2.83;;;2.55;;
77563;SDS011;66703;48.076;9.220;2023-04-23T13:17:55;3.47;;;2.60;;
77563;SDS011;66703;48.076;9.220;2023-04-23T13:20:20;3.78;;;2.60;;
77563;SDS011;66703;48.076;9.220;2023-04-23T13:22:46;2.88;;;2.38;;
77563;SDS011;66703;48.076;9.220;2023-04-23T13:25:11;2.60;;;2.40;;
77563;SDS011;66703;48.076;9.220;2023-04-23T13:27:36;3.17;;;2.33;;
77563;SDS011;66703;48.076;9.220;2023-04-23T13:30:02;2.53;;;2.17;;
77563;SDS011;66703;48.076;9.220;2023-04-23T13:32:30;2.70;;;2.50;;
77563;SDS011;66703;48.076;9.220;2023-04-23T13:34:56;3.08;;;2.75;;
77563;SDS011;66703;48.076;9.220;2023-04-23T13:37:24;2.90;;;2.50;;
77563;SDS011;66703;48.076;9.220;2023-04-23T13:39:51;3.80;;;2.50;;
77563;SDS011;66703;48.076;9.220;2023-04-23T13:42:16;4.05;;;2.55;;
77563;SDS011;66703;48.076;9.220;2023-04-23T13:44:42;2.90;;;2.70;;
77563;SDS011;66703;48.076;9.220;2023-04-23T13:47:07;4.78;;;2.60;;
77563;SDS011;66703;48.076;9.220;2023-04-23T13:49:32;3.67;;;2.50;;
77563;SDS011;66703;48.076;9.220;2023-04-23T13:51:58;3.33;;;2.78;;
77563;SDS011;66703;48.076;9.220;2023-04-23T13:54:28;4.45;;;2.80;;
77563;SDS011;66703;48.076;9.220;2023-04-23T13:56:56;3.50;;;2.72;;
77563;SDS011;66703;48.076;9.220;2023-04-23T13:59:22;3.40;;;3.10;;
77563;SDS011;66703;48.076;9.220;2023-04-23T14:01:49;4.10;;;2.55;;
77563;SDS011;66703;48.076;9.220;2023-04-23T14:04:15;2.53;;;2.33;;
77563;SDS011;66703;48.076;9.220;2023-04-23T14:06:41;2.75;;;2.55;;
77563;SDS011;66703;48.076;9.220;2023-04-23T14:09:06;4.05;;;3.42;;
77563;SDS011;66703;48.076;9.220;2023-04-23T14:11:32;4.22;;;3.25;;
77563;SDS011;66703;48.076;9.220;2023-04-23T14:13:57;3.40;;;2.38;;
77563;SDS011;66703;48.076;9.220;2023-04-23T14:16:25;3.20;;;2.90;;
77563;SDS011;66703;48.076;9.220;2023-04-23T14:18:50;3.30;;;2.55;;
77563;SDS011;66703;48.076;9.220;2023-04-23T14:21:16;5.35;;;3.65;;
77563;SDS011;66703;48.076;9.220;2023-04-23T14:26:34;4.35;;;2.83;;
77563;SDS011;66703;48.076;9.220;2023-04-23T14:29:17;2.92;;;2.72;;
77563;SDS011;66703;48.076;9.220;2023-04-23T14:31:53;3.38;;;2.47;;
77563;SDS011;66703;48.076;9.220;2023-04-23T14:34:18;3.25;;;2.95;;
77563;SDS011;66703;48.076;9.220;2023-04-23T14:36:44;3.85;;;3.55;;
77563;SDS011;66703;48.076;9.220;2023-04-23T14:39:12;5.88;;;2.72;;
77563;SDS011;66703;48.076;9.220;2023-04-23T14:41:38;4.50;;;3.20;;
77563;SDS011;66703;48.076;9.220;2023-04-23T14:44:04;3.20;;;2.45;;
77563;SDS011;66703;48.076;9.220;2023-04-23T14:46:31;3.95;;;2.72;;
77563;SDS011;66703;48.076;9.220;2023-04-23T14:48:56;3.08;;;2.60;;
77563;SDS011;66703;48.076;9.220;2023-04-23T14:51:22;3.47;;;3.17;;
77563;SDS011;66703;48.076;9.220;2023-04-23T14:53:47;3.75;;;3.30;;
77563;SDS011;66703;48.076;9.220;2023-04-23T14:56:13;2.92;;;2.63;;
77563;SDS011;66703;48.076;9.220;2023-04-23T14:58:38;3.75;;;3.05;;